createdAt,value
2022-12-29T00:02:27.578Z,100419.50
2022-12-29T00:04:55.499Z,100415.63
2022-12-29T00:07:23.356Z,100412.41
2022-12-29T00:09:51.264Z,100404.16
2022-12-29T00:12:19.097Z,100403.47
2022-12-29T00:15:04.489Z,100406.88
2022-12-29T00:17:33.744Z,100396.63
2022-12-29T00:20:18.796Z,100396.22
2022-12-29T00:23:03.976Z,100397.56
2022-12-29T00:25:49.162Z,100400.28
2022-12-29T00:28:34.603Z,100387.88
2022-12-29T00:31:20.759Z,100393.22
2022-12-29T00:34:07.301Z,100388.25
2022-12-29T00:36:40.692Z,100384.09
2022-12-29T00:39:26.075Z,100382.97
2022-12-29T00:42:08.146Z,100377.63
2022-12-29T00:44:36.177Z,100381.47
2022-12-29T00:47:05.390Z,100386.53
2022-12-29T00:49:34.356Z,100380.88
2022-12-29T00:52:05.402Z,100374.22
2022-12-29T00:54:35.343Z,100369.03
2022-12-29T00:57:04.029Z,100371.03
2022-12-29T00:59:32.803Z,100372.31
2022-12-29T01:02:00.718Z,100377.28
2022-12-29T01:04:29.952Z,100370.31
2022-12-29T01:06:59.199Z,100369.97
2022-12-29T01:09:44.514Z,100372.00
2022-12-29T01:12:13.521Z,100372.44
2022-12-29T01:14:42.801Z,100370.50
2022-12-29T01:17:10.923Z,100376.81
2022-12-29T01:19:40.120Z,100363.63
2022-12-29T01:22:09.396Z,100373.41
2022-12-29T01:24:37.548Z,100361.00
2022-12-29T01:27:05.521Z,100362.09
2022-12-29T01:29:33.513Z,100363.13
2022-12-29T01:32:01.483Z,100364.41
2022-12-29T01:34:29.788Z,100359.63
2022-12-29T01:36:57.801Z,100361.75
2022-12-29T01:39:27.439Z,100352.06
2022-12-29T01:41:55.319Z,100355.66
2022-12-29T01:44:57.350Z,100360.44
2022-12-29T01:47:31.029Z,100365.47
2022-12-29T01:50:02.811Z,100367.16
2022-12-29T01:52:34.129Z,100363.31
2022-12-29T01:55:06.979Z,100356.88
2022-12-29T01:57:38.895Z,100348.59
2022-12-29T02:00:10.294Z,100344.25
2022-12-29T02:02:42.494Z,100335.81
2022-12-29T02:05:16.161Z,100330.88
2022-12-29T02:07:48.749Z,100325.81
2022-12-29T02:10:18.153Z,100332.81
2022-12-29T02:12:48.707Z,100330.06
2022-12-29T02:15:17.679Z,100321.38
2022-12-29T02:18:03.974Z,100325.84
2022-12-29T02:21:00.193Z,100313.69
2022-12-29T02:23:57.374Z,100314.41
2022-12-29T02:26:45.808Z,100304.94
2022-12-29T02:29:38.702Z,100300.72
2022-12-29T02:32:15.566Z,100301.28
2022-12-29T02:34:54.567Z,100303.59
2022-12-29T02:37:28.184Z,100294.47
2022-12-29T02:40:01.166Z,100299.16
2022-12-29T02:42:37.701Z,100299.53
2022-12-29T02:45:10.831Z,100290.59
2022-12-29T02:47:44.392Z,100291.00
2022-12-29T02:50:18.841Z,100289.28
2022-12-29T02:52:51.217Z,100282.66
2022-12-29T02:55:18.285Z,100285.56
2022-12-29T02:57:46.347Z,100272.19
2022-12-29T03:00:18.077Z,100277.50
2022-12-29T03:03:07.622Z,100272.94
2022-12-29T03:06:01.489Z,100274.28
2022-12-29T03:08:33.776Z,100261.34
2022-12-29T03:11:05.394Z,100260.28
2022-12-29T03:13:59.088Z,100258.38
2022-12-29T03:16:37.324Z,100250.00
2022-12-29T03:19:12.820Z,100252.06
2022-12-29T03:22:03.595Z,100250.53
2022-12-29T03:24:41.785Z,100253.47
2022-12-29T03:27:12.818Z,100253.25
2022-12-29T03:29:53.285Z,100243.81
2022-12-29T03:32:24.780Z,100252.94
2022-12-29T03:34:57.441Z,100246.63
2022-12-29T03:37:30.989Z,100253.28
2022-12-29T03:40:00.364Z,100247.78
2022-12-29T03:42:32.565Z,100244.53
2022-12-29T03:45:00.546Z,100234.97
2022-12-29T03:47:29.840Z,100232.72
2022-12-29T03:49:59.241Z,100238.53
2022-12-29T03:52:27.235Z,100238.03
2022-12-29T03:54:56.150Z,100247.47
2022-12-29T03:57:24.040Z,100241.16
2022-12-29T03:59:59.139Z,100247.16
2022-12-29T04:02:27.227Z,100251.59
2022-12-29T04:04:58.950Z,100236.41
2022-12-29T04:07:26.836Z,100229.88
2022-12-29T04:09:56.626Z,100234.31
2022-12-29T04:12:27.582Z,100240.69
2022-12-29T04:14:55.493Z,100241.69
2022-12-29T04:17:24.039Z,100241.03
2022-12-29T04:20:14.417Z,100234.44
2022-12-29T04:22:43.686Z,100242.88
2022-12-29T04:25:12.325Z,100242.88
2022-12-29T04:27:40.441Z,100251.03
2022-12-29T04:30:26.576Z,100241.88
2022-12-29T04:33:05.345Z,100233.84
2022-12-29T04:35:33.292Z,100222.75
2022-12-29T04:38:04.243Z,100220.91
2022-12-29T04:40:32.405Z,100222.16
2022-12-29T04:43:00.324Z,100221.69
2022-12-29T04:45:28.745Z,100215.47
2022-12-29T04:48:02.184Z,100224.00
2022-12-29T04:51:05.860Z,100213.44
2022-12-29T04:53:40.644Z,100209.91
2022-12-29T04:56:10.149Z,100210.22
2022-12-29T04:58:38.621Z,100203.69
2022-12-29T05:01:07.069Z,100210.06
2022-12-29T05:03:35.940Z,100212.19
2022-12-29T05:06:03.948Z,100213.28
2022-12-29T05:08:31.895Z,100212.16
2022-12-29T05:11:04.913Z,100207.41
2022-12-29T05:13:32.803Z,100209.19
2022-12-29T05:16:04.152Z,100196.91
2022-12-29T05:18:32.206Z,100201.88
2022-12-29T05:21:00.836Z,100196.09
2022-12-29T05:23:29.658Z,100196.53
2022-12-29T05:26:05.441Z,100189.91
2022-12-29T05:28:58.148Z,100182.72
2022-12-29T05:31:26.094Z,100185.97
2022-12-29T05:33:54.404Z,100184.28
2022-12-29T05:36:22.943Z,100185.13
2022-12-29T05:38:55.087Z,100177.78
2022-12-29T05:41:24.520Z,100171.28
2022-12-29T05:44:08.743Z,100178.78
2022-12-29T05:47:05.274Z,100171.84
2022-12-29T05:49:47.806Z,100186.41
2022-12-29T05:52:30.628Z,100171.84
2022-12-29T05:54:58.845Z,100173.25
2022-12-29T05:57:29.791Z,100171.72
2022-12-29T06:00:09.726Z,100161.41
2022-12-29T06:02:42.821Z,100173.25
2022-12-29T06:05:11.565Z,100163.06
2022-12-29T06:07:40.900Z,100153.75
2022-12-29T06:10:10.052Z,100166.03
2022-12-29T06:12:47.142Z,100165.31
2022-12-29T06:15:16.710Z,100161.38
2022-12-29T06:17:45.838Z,100153.09
2022-12-29T06:20:13.813Z,100148.94
2022-12-29T06:22:42.514Z,100162.50
2022-12-29T06:25:11.067Z,100153.75
2022-12-29T06:27:40.378Z,100163.91
2022-12-29T06:30:11.355Z,100162.47
2022-12-29T06:32:40.944Z,100163.50
2022-12-29T06:35:11.848Z,100154.31
2022-12-29T06:37:44.493Z,100161.91
2022-12-29T06:40:13.764Z,100163.16
2022-12-29T06:43:01.253Z,100164.63
2022-12-29T06:45:50.529Z,100160.84
2022-12-29T06:48:18.565Z,100176.28
2022-12-29T06:50:46.392Z,100169.38
2022-12-29T06:53:14.275Z,100176.75
2022-12-29T06:55:43.612Z,100178.41
2022-12-29T06:58:11.523Z,100180.19
2022-12-29T07:00:39.437Z,100177.78
2022-12-29T07:03:08.677Z,100191.50
2022-12-29T07:05:36.586Z,100179.69
2022-12-29T07:08:04.480Z,100189.00
2022-12-29T07:10:32.344Z,100189.75
2022-12-29T07:13:00.379Z,100192.72
2022-12-29T07:15:28.297Z,100195.97
2022-12-29T07:17:56.226Z,100200.03
2022-12-29T07:20:27.212Z,100200.84
2022-12-29T07:22:55.622Z,100197.38
2022-12-29T07:25:23.542Z,100201.72
2022-12-29T07:27:51.561Z,100196.50
2022-12-29T07:30:19.582Z,100196.66
2022-12-29T07:32:47.545Z,100202.88
2022-12-29T07:35:15.606Z,100195.50
2022-12-29T07:37:44.884Z,100181.13
2022-12-29T07:40:13.778Z,100185.06
2022-12-29T07:42:42.073Z,100186.06
2022-12-29T07:45:11.625Z,100182.25
2022-12-29T07:48:09.427Z,100172.69
2022-12-29T07:50:37.611Z,100182.25
2022-12-29T07:53:06.905Z,100182.56
2022-12-29T07:55:34.856Z,100185.34
2022-12-29T07:58:02.775Z,100194.13
2022-12-29T08:00:30.711Z,100192.69
2022-12-29T08:03:00.014Z,100191.00
2022-12-29T08:05:27.909Z,100184.81
2022-12-29T08:07:55.831Z,100184.50
2022-12-29T08:10:25.099Z,100176.28
2022-12-29T08:12:53.746Z,100186.16
2022-12-29T08:15:24.416Z,100187.41
2022-12-29T08:17:55.253Z,100183.03
2022-12-29T08:20:23.153Z,100177.66
2022-12-29T08:22:52.803Z,100180.53
2022-12-29T08:25:21.551Z,100183.66
2022-12-29T08:27:50.861Z,100191.94
2022-12-29T08:30:19.031Z,100178.44
2022-12-29T08:32:47.122Z,100186.91
2022-12-29T08:35:15.108Z,100179.75
2022-12-29T08:37:43.085Z,100177.19
2022-12-29T08:40:11.865Z,100169.28
2022-12-29T08:42:39.804Z,100172.38
2022-12-29T08:45:10.732Z,100167.56
2022-12-29T08:47:38.913Z,100176.94
2022-12-29T08:50:07.869Z,100173.03
2022-12-29T08:52:35.775Z,100177.66
2022-12-29T08:55:03.699Z,100174.63
2022-12-29T08:57:31.916Z,100180.69
2022-12-29T09:00:18.876Z,100190.22
2022-12-29T09:02:47.520Z,100165.22
2022-12-29T09:05:15.702Z,100166.97
2022-12-29T09:07:43.926Z,100155.44
2022-12-29T09:10:11.875Z,100168.47
2022-12-29T09:12:39.750Z,100165.13
2022-12-29T09:15:09.269Z,100171.06
2022-12-29T09:17:45.556Z,100163.53
2022-12-29T09:20:14.630Z,100162.06
2022-12-29T09:22:43.142Z,100167.72
2022-12-29T09:25:11.762Z,100162.38
2022-12-29T09:27:39.681Z,100163.22
2022-12-29T09:30:11.585Z,100166.59
2022-12-29T09:32:45.124Z,100156.13
2022-12-29T09:35:13.935Z,100154.94
2022-12-29T09:37:41.855Z,100147.84
2022-12-29T09:40:23.459Z,100149.22
2022-12-29T09:43:12.721Z,100155.19
2022-12-29T09:45:45.746Z,100132.28
2022-12-29T09:48:20.096Z,100135.81
2022-12-29T09:50:52.644Z,100135.03
2022-12-29T09:53:24.672Z,100124.72
2022-12-29T09:55:55.579Z,100136.03
2022-12-29T09:58:27.321Z,100157.09
2022-12-29T10:01:00.508Z,100143.75
2022-12-29T10:03:41.374Z,100142.16
2022-12-29T10:06:14.118Z,100146.22
2022-12-29T10:08:46.784Z,100147.84
2022-12-29T10:11:26.114Z,100139.00
2022-12-29T10:14:15.806Z,100155.19
2022-12-29T10:16:55.099Z,100143.94
2022-12-29T10:19:46.109Z,100142.16
2022-12-29T10:22:23.755Z,100134.78
2022-12-29T10:24:57.099Z,100135.44
2022-12-29T10:27:26.297Z,100117.47
2022-12-29T10:29:58.020Z,100130.59
2022-12-29T10:32:35.206Z,100118.34
2022-12-29T10:35:13.961Z,100122.06
2022-12-29T10:37:48.260Z,100122.13
2022-12-29T10:40:23.982Z,100111.09
2022-12-29T10:42:55.410Z,100114.59
2022-12-29T10:45:26.368Z,100110.44
2022-12-29T10:47:59.606Z,100106.69
2022-12-29T10:50:30.451Z,100112.22
2022-12-29T10:53:02.240Z,100117.53
2022-12-29T10:55:34.379Z,100112.50
2022-12-29T10:58:05.970Z,100108.47
2022-12-29T11:00:34.842Z,100107.28
2022-12-29T11:03:36.088Z,100112.44
2022-12-29T11:06:11.128Z,100109.81
2022-12-29T11:08:42.037Z,100118.38
2022-12-29T11:11:11.704Z,100118.91
2022-12-29T11:13:50.095Z,100117.69
2022-12-29T11:16:29.720Z,100118.44
2022-12-29T11:18:57.693Z,100112.03
2022-12-29T11:21:34.753Z,100120.84
2022-12-29T11:24:04.744Z,100121.03
2022-12-29T11:26:35.004Z,100126.22
2022-12-29T11:29:25.819Z,100126.31
2022-12-29T11:31:56.192Z,100137.22
2022-12-29T11:34:26.529Z,100128.00
2022-12-29T11:37:03.199Z,100145.22
2022-12-29T11:39:42.016Z,100138.69
2022-12-29T11:42:17.323Z,100150.31
2022-12-29T11:44:47.893Z,100151.88
2022-12-29T11:47:27.573Z,100145.84
2022-12-29T11:49:59.294Z,100155.41
2022-12-29T11:52:34.105Z,100146.91
2022-12-29T11:55:03.656Z,100157.16
2022-12-29T11:57:35.384Z,100156.59
2022-12-29T12:00:04.879Z,100180.56
2022-12-29T12:02:44.621Z,100173.81
2022-12-29T12:05:28.025Z,100171.78
2022-12-29T12:08:04.404Z,100172.88
2022-12-29T12:10:39.569Z,100158.94
2022-12-29T12:13:16.588Z,100173.84
2022-12-29T12:15:52.851Z,100191.69
2022-12-29T12:18:34.561Z,100189.81
2022-12-29T12:21:10.791Z,100182.50
2022-12-29T12:23:48.102Z,100192.34
2022-12-29T12:26:19.818Z,100173.81
2022-12-29T12:28:56.246Z,100180.94
2022-12-29T12:31:43.494Z,100169.81
2022-12-29T12:34:17.987Z,100168.16
2022-12-29T12:37:12.416Z,100171.22
2022-12-29T12:39:58.284Z,100161.53
2022-12-29T12:42:45.012Z,100169.00
2022-12-29T12:45:40.998Z,100169.31
2022-12-29T12:48:26.050Z,100167.06
2022-12-29T12:51:00.575Z,100160.91
2022-12-29T12:53:41.933Z,100169.03
2022-12-29T12:56:34.910Z,100178.16
2022-12-29T12:59:11.546Z,100173.38
2022-12-29T13:01:49.006Z,100170.25
2022-12-29T13:05:05.557Z,100174.03
2022-12-29T13:07:46.826Z,100172.28
2022-12-29T13:10:24.411Z,100169.19
2022-12-29T13:13:03.226Z,100169.19
2022-12-29T13:15:44.826Z,100177.41
2022-12-29T13:18:26.343Z,100176.00
2022-12-29T13:21:01.523Z,100172.13
2022-12-29T13:23:36.857Z,100181.56
2022-12-29T13:26:14.025Z,100181.47
2022-12-29T13:28:51.941Z,100183.38
2022-12-29T13:31:28.712Z,100197.94
2022-12-29T13:34:03.187Z,100191.41
2022-12-29T13:36:36.991Z,100199.94
2022-12-29T13:39:16.209Z,100188.38
2022-12-29T13:41:50.958Z,100184.56
2022-12-29T13:44:24.578Z,100189.13
2022-12-29T13:46:53.898Z,100184.09
2022-12-29T13:49:25.426Z,100184.09
2022-12-29T13:51:56.172Z,100184.63
2022-12-29T13:54:33.470Z,100188.84
2022-12-29T13:57:11.547Z,100187.88
2022-12-29T13:59:51.041Z,100195.03
2022-12-29T14:02:33.055Z,100202.13
2022-12-29T14:05:03.672Z,100202.59
2022-12-29T14:07:37.731Z,100206.44
2022-12-29T14:10:06.669Z,100205.25
2022-12-29T14:12:40.080Z,100212.50
2022-12-29T14:15:17.479Z,100211.75
2022-12-29T14:17:45.965Z,100214.22
2022-12-29T14:20:21.977Z,100214.66
2022-12-29T14:23:02.264Z,100214.75
2022-12-29T14:25:59.227Z,100228.25
2022-12-29T14:28:28.694Z,100227.84
2022-12-29T14:30:59.331Z,100225.06
2022-12-29T14:33:29.970Z,100237.16
2022-12-29T14:35:57.983Z,100236.84
2022-12-29T14:38:29.312Z,100241.41
2022-12-29T14:41:21.094Z,100247.91
2022-12-29T14:44:03.179Z,100249.34
2022-12-29T14:46:49.034Z,100245.69
2022-12-29T14:49:21.374Z,100245.31
2022-12-29T14:51:50.554Z,100250.47
2022-12-29T14:54:46.058Z,100250.81
2022-12-29T14:57:24.265Z,100252.13
2022-12-29T14:59:57.949Z,100253.25
2022-12-29T15:02:34.528Z,100264.19
2022-12-29T15:05:04.492Z,100261.03
2022-12-29T15:07:33.603Z,100273.59
2022-12-29T15:10:08.380Z,100270.94
2022-12-29T15:12:41.106Z,100275.41
2022-12-29T15:15:21.328Z,100315.09
2022-12-29T15:17:50.622Z,100323.34
2022-12-29T15:20:28.315Z,100322.34
2022-12-29T15:22:59.611Z,100310.09
2022-12-29T15:25:28.250Z,100303.44
2022-12-29T15:27:59.547Z,100288.94
2022-12-29T15:30:27.490Z,100298.09
2022-12-29T15:32:56.875Z,100302.63
2022-12-29T15:35:29.345Z,100293.44
2022-12-29T15:37:58.153Z,100290.78
2022-12-29T15:40:27.995Z,100308.13
2022-12-29T15:43:09.878Z,100301.22
2022-12-29T15:45:38.160Z,100295.13
2022-12-29T15:48:16.645Z,100303.19
2022-12-29T15:50:45.154Z,100309.66
2022-12-29T15:53:14.998Z,100320.13
2022-12-29T15:55:45.168Z,100316.31
2022-12-29T15:58:22.164Z,100320.50
2022-12-29T16:00:53.992Z,100319.56
2022-12-29T16:03:25.340Z,100323.66
2022-12-29T16:05:56.441Z,100328.31
2022-12-29T16:08:33.473Z,100331.00
2022-12-29T16:11:03.680Z,100344.00
2022-12-29T16:13:39.855Z,100347.22
2022-12-29T16:16:15.692Z,100345.63
2022-12-29T16:18:50.466Z,100337.50
2022-12-29T16:21:25.360Z,100335.47
2022-12-29T16:23:56.725Z,100333.78
2022-12-29T16:26:26.154Z,100342.25
2022-12-29T16:28:58.168Z,100351.56
2022-12-29T16:31:30.611Z,100355.22
2022-12-29T16:34:00.172Z,100357.59
2022-12-29T16:36:31.389Z,100351.84
2022-12-29T16:39:34.061Z,100349.91
2022-12-29T16:42:02.546Z,100355.97
2022-12-29T16:44:32.280Z,100360.22
2022-12-29T16:47:22.431Z,100359.47
2022-12-29T16:49:55.923Z,100351.47
2022-12-29T16:52:29.426Z,100357.81
2022-12-29T16:55:01.163Z,100355.78
2022-12-29T16:57:32.410Z,100344.97
2022-12-29T17:00:03.518Z,100349.88
2022-12-29T17:02:34.522Z,100348.44
2022-12-29T17:05:03.942Z,100355.09
2022-12-29T17:07:32.396Z,100353.25
2022-12-29T17:10:00.419Z,100357.91
2022-12-29T17:12:31.296Z,100355.50
2022-12-29T17:15:01.591Z,100363.16
2022-12-29T17:17:34.650Z,100360.63
2022-12-29T17:20:07.284Z,100361.72
2022-12-29T17:22:35.296Z,100357.25
2022-12-29T17:25:04.043Z,100367.72
2022-12-29T17:27:35.737Z,100369.25
2022-12-29T17:30:07.007Z,100367.69
2022-12-29T17:32:35.255Z,100371.53
2022-12-29T17:35:05.015Z,100371.94
2022-12-29T17:37:38.524Z,100372.06
2022-12-29T17:40:09.596Z,100373.63
2022-12-29T17:42:43.054Z,100384.78
2022-12-29T17:45:14.329Z,100379.00
2022-12-29T17:47:42.165Z,100377.16
2022-12-29T17:50:14.266Z,100381.38
2022-12-29T17:52:42.873Z,100369.69
2022-12-29T17:55:17.521Z,100372.63
2022-12-29T17:57:45.604Z,100375.44
2022-12-29T18:00:17.981Z,100378.69
2022-12-29T18:02:47.268Z,100386.31
2022-12-29T18:05:21.360Z,100390.56
2022-12-29T18:07:50.150Z,100380.41
2022-12-29T18:10:18.183Z,100384.63
2022-12-29T18:12:48.042Z,100384.34
2022-12-29T18:15:21.828Z,100386.06
2022-12-29T18:17:49.922Z,100380.69
2022-12-29T18:20:19.139Z,100385.78
2022-12-29T18:22:46.983Z,100386.03
2022-12-29T18:25:23.504Z,100386.56
2022-12-29T18:27:51.435Z,100397.13
2022-12-29T18:30:19.607Z,100399.59
2022-12-29T18:32:47.512Z,100403.13
2022-12-29T18:35:24.402Z,100409.75
2022-12-29T18:37:52.421Z,100408.84
2022-12-29T18:40:20.657Z,100406.66
2022-12-29T18:42:48.519Z,100402.00
2022-12-29T18:45:21.897Z,100408.63
2022-12-29T18:47:49.648Z,100408.63
2022-12-29T18:50:19.554Z,100415.69
2022-12-29T18:52:47.716Z,100409.19
2022-12-29T18:55:17.988Z,100420.50
2022-12-29T18:57:45.945Z,100412.59
2022-12-29T19:00:16.684Z,100419.19
2022-12-29T19:02:45.288Z,100423.59
2022-12-29T19:05:23.206Z,100427.44
2022-12-29T19:07:51.851Z,100429.53
2022-12-29T19:10:21.138Z,100432.34
2022-12-29T19:12:49.090Z,100432.22
2022-12-29T19:15:23.491Z,100431.91
2022-12-29T19:18:16.061Z,100430.91
2022-12-29T19:20:42.936Z,100440.22
2022-12-29T19:23:13.059Z,100439.31
2022-12-29T19:25:41.705Z,100437.94
2022-12-29T19:28:16.912Z,100435.22
2022-12-29T19:30:49.558Z,100444.75
2022-12-29T19:33:20.449Z,100462.91
2022-12-29T19:35:50.094Z,100460.13
2022-12-29T19:38:18.020Z,100460.06
2022-12-29T19:40:48.076Z,100470.94
2022-12-29T19:43:16.425Z,100468.53
2022-12-29T19:45:45.561Z,100467.56
2022-12-29T19:48:14.968Z,100464.22
2022-12-29T19:50:43.635Z,100468.53
2022-12-29T19:53:13.752Z,100470.34
2022-12-29T19:55:43.391Z,100464.72
2022-12-29T19:58:11.390Z,100470.25
2022-12-29T20:00:40.957Z,100464.72
2022-12-29T20:03:09.288Z,100470.34
2022-12-29T20:05:37.452Z,100464.38
2022-12-29T20:08:05.539Z,100462.72
2022-12-29T20:10:34.855Z,100468.03
2022-12-29T20:13:04.459Z,100465.25
2022-12-29T20:15:32.918Z,100469.50
2022-12-29T20:18:16.015Z,100461.88
2022-12-29T20:20:44.172Z,100466.13
2022-12-29T20:23:12.145Z,100460.22
2022-12-29T20:25:45.144Z,100466.66
2022-12-29T20:28:14.288Z,100467.13
2022-12-29T20:30:42.206Z,100468.59
2022-12-29T20:33:10.205Z,100467.09
2022-12-29T20:35:43.438Z,100470.44
2022-12-29T20:38:11.156Z,100465.13
2022-12-29T20:40:45.878Z,100466.09
2022-12-29T20:43:17.521Z,100461.00
2022-12-29T20:45:46.040Z,100459.94
2022-12-29T20:48:13.959Z,100464.78
2022-12-29T20:50:42.013Z,100460.03
2022-12-29T20:53:09.955Z,100455.38
2022-12-29T20:55:40.908Z,100454.66
2022-12-29T20:58:25.414Z,100454.06
2022-12-29T21:00:55.603Z,100453.16
2022-12-29T21:03:24.638Z,100461.00
2022-12-29T21:05:53.639Z,100458.19
2022-12-29T21:08:22.176Z,100475.06
2022-12-29T21:10:50.942Z,100463.31
2022-12-29T21:13:18.842Z,100459.91
2022-12-29T21:15:47.101Z,100466.22
2022-12-29T21:18:16.441Z,100459.94
2022-12-29T21:20:44.295Z,100453.06
2022-12-29T21:23:12.273Z,100468.75
2022-12-29T21:25:45.157Z,100465.25
2022-12-29T21:28:13.169Z,100462.69
2022-12-29T21:30:41.791Z,100460.84
2022-12-29T21:33:10.176Z,100467.47
2022-12-29T21:35:40.032Z,100475.50
2022-12-29T21:38:08.616Z,100480.34
2022-12-29T21:40:38.450Z,100479.19
2022-12-29T21:43:07.080Z,100477.31
2022-12-29T21:45:34.577Z,100484.38
2022-12-29T21:48:24.397Z,100477.22
2022-12-29T21:51:12.072Z,100479.22
2022-12-29T21:53:41.784Z,100486.69
2022-12-29T21:56:12.746Z,100492.22
2022-12-29T21:58:59.487Z,100490.81
2022-12-29T22:01:46.395Z,100502.38
2022-12-29T22:04:32.831Z,100499.25
2022-12-29T22:07:19.714Z,100508.00
2022-12-29T22:10:05.149Z,100497.25
2022-12-29T22:12:51.453Z,100505.69
2022-12-29T22:15:20.190Z,100500.69
2022-12-29T22:17:49.697Z,100505.28
2022-12-29T22:20:17.854Z,100502.78
2022-12-29T22:22:47.336Z,100500.88
2022-12-29T22:25:15.829Z,100501.00
2022-12-29T22:27:44.178Z,100503.09
2022-12-29T22:30:12.672Z,100500.50
2022-12-29T22:32:41.149Z,100494.94
2022-12-29T22:35:10.238Z,100488.34
2022-12-29T22:37:40.274Z,100497.69
2022-12-29T22:40:11.302Z,100488.59
2022-12-29T22:42:39.993Z,100498.59
2022-12-29T22:45:09.395Z,100499.81
2022-12-29T22:47:37.668Z,100510.81
2022-12-29T22:50:06.492Z,100506.09
2022-12-29T22:52:34.436Z,100517.56
2022-12-29T22:55:06.793Z,100512.38
2022-12-29T22:57:37.041Z,100518.06
2022-12-29T23:00:08.095Z,100535.09
2022-12-29T23:02:36.632Z,100531.16
2022-12-29T23:05:06.115Z,100531.50
2022-12-29T23:07:35.434Z,100530.72
2022-12-29T23:10:03.664Z,100537.66
2022-12-29T23:12:32.690Z,100548.47
2022-12-29T23:15:01.919Z,100536.25
2022-12-29T23:17:30.008Z,100546.34
2022-12-29T23:19:57.879Z,100538.00
2022-12-29T23:22:25.766Z,100543.97
2022-12-29T23:24:53.623Z,100551.47
2022-12-29T23:27:21.936Z,100551.03
2022-12-29T23:29:50.718Z,100555.03
2022-12-29T23:32:20.231Z,100551.09
2022-12-29T23:34:48.454Z,100564.97
2022-12-29T23:37:16.552Z,100565.50
2022-12-29T23:39:44.460Z,100561.53
2022-12-29T23:42:12.413Z,100567.59
2022-12-29T23:44:40.654Z,100568.50
2022-12-29T23:47:08.853Z,100560.59
2022-12-29T23:49:38.213Z,100570.00
2022-12-29T23:52:06.183Z,100569.91
2022-12-29T23:54:34.165Z,100572.63
2022-12-29T23:57:02.422Z,100580.16
2022-12-29T23:59:30.439Z,100584.75
